sensor_id;sensor_type;location;lat;lon;timestamp;P1;durP1;ratioP1;P2;durP2;ratioP2
7334;SDS011;3708;42.632;23.378;2022-11-20T00:00:21;14.00;;;7.70;;
7334;SDS011;3708;42.632;23.378;2022-11-20T00:02:48;9.27;;;6.77;;
7334;SDS011;3708;42.632;23.378;2022-11-20T00:05:15;10.63;;;7.57;;
7334;SDS011;3708;42.632;23.378;2022-11-20T00:07:42;10.47;;;7.60;;
7334;SDS011;3708;42.632;23.378;2022-11-20T00:10:09;9.80;;;7.07;;
7334;SDS011;3708;42.632;23.378;2022-11-20T00:12:36;9.70;;;7.13;;
7334;SDS011;3708;42.632;23.378;2022-11-20T00:15:04;12.27;;;7.10;;
7334;SDS011;3708;42.632;23.378;2022-11-20T00:17:32;12.70;;;6.70;;
7334;SDS011;3708;42.632;23.378;2022-11-20T00:19:59;8.57;;;5.93;;
7334;SDS011;3708;42.632;23.378;2022-11-20T00:22:25;6.80;;;3.20;;
7334;SDS011;3708;42.632;23.378;2022-11-20T00:24:52;6.47;;;3.80;;
7334;SDS011;3708;42.632;23.378;2022-11-20T00:27:19;6.60;;;3.10;;
7334;SDS011;3708;42.632;23.378;2022-11-20T00:29:46;5.70;;;3.07;;
7334;SDS011;3708;42.632;23.378;2022-11-20T00:32:14;5.10;;;3.73;;
7334;SDS011;3708;42.632;23.378;2022-11-20T00:34:41;5.40;;;3.20;;
7334;SDS011;3708;42.632;23.378;2022-11-20T00:37:08;3.83;;;3.23;;
7334;SDS011;3708;42.632;23.378;2022-11-20T00:39:35;4.63;;;3.23;;
7334;SDS011;3708;42.632;23.378;2022-11-20T00:42:02;2.63;;;2.37;;
7334;SDS011;3708;42.632;23.378;2022-11-20T00:44:29;4.33;;;3.30;;
7334;SDS011;3708;42.632;23.378;2022-11-20T00:46:56;5.33;;;2.70;;
7334;SDS011;3708;42.632;23.378;2022-11-20T00:49:24;4.53;;;2.53;;
7334;SDS011;3708;42.632;23.378;2022-11-20T00:51:51;7.53;;;3.03;;
7334;SDS011;3708;42.632;23.378;2022-11-20T00:54:18;4.20;;;2.93;;
7334;SDS011;3708;42.632;23.378;2022-11-20T00:56:45;10.07;;;3.30;;
7334;SDS011;3708;42.632;23.378;2022-11-20T00:59:12;3.43;;;2.67;;
7334;SDS011;3708;42.632;23.378;2022-11-20T01:01:39;4.20;;;2.90;;
7334;SDS011;3708;42.632;23.378;2022-11-20T01:04:06;3.30;;;2.37;;
7334;SDS011;3708;42.632;23.378;2022-11-20T01:06:36;2.33;;;1.80;;
7334;SDS011;3708;42.632;23.378;2022-11-20T01:09:04;3.07;;;2.10;;
7334;SDS011;3708;42.632;23.378;2022-11-20T01:11:33;3.57;;;2.30;;
7334;SDS011;3708;42.632;23.378;2022-11-20T01:14:03;4.00;;;2.20;;
7334;SDS011;3708;42.632;23.378;2022-11-20T01:16:33;5.03;;;3.13;;
7334;SDS011;3708;42.632;23.378;2022-11-20T01:19:02;4.57;;;2.50;;
7334;SDS011;3708;42.632;23.378;2022-11-20T01:21:31;4.73;;;2.50;;
7334;SDS011;3708;42.632;23.378;2022-11-20T01:24:01;3.93;;;2.40;;
7334;SDS011;3708;42.632;23.378;2022-11-20T01:26:30;6.03;;;2.73;;
7334;SDS011;3708;42.632;23.378;2022-11-20T01:28:58;3.23;;;2.50;;
7334;SDS011;3708;42.632;23.378;2022-11-20T01:31:27;4.17;;;2.70;;
7334;SDS011;3708;42.632;23.378;2022-11-20T01:33:56;3.30;;;2.37;;
7334;SDS011;3708;42.632;23.378;2022-11-20T01:36:24;5.63;;;2.90;;
7334;SDS011;3708;42.632;23.378;2022-11-20T01:38:53;6.43;;;2.70;;
7334;SDS011;3708;42.632;23.378;2022-11-20T01:41:23;5.00;;;2.60;;
7334;SDS011;3708;42.632;23.378;2022-11-20T01:44:12;4.00;;;2.43;;
7334;SDS011;3708;42.632;23.378;2022-11-20T01:46:42;3.90;;;2.63;;
7334;SDS011;3708;42.632;23.378;2022-11-20T01:49:20;3.93;;;2.60;;
7334;SDS011;3708;42.632;23.378;2022-11-20T01:51:51;5.53;;;3.17;;
7334;SDS011;3708;42.632;23.378;2022-11-20T01:54:24;13.70;;;2.70;;
7334;SDS011;3708;42.632;23.378;2022-11-20T01:56:56;3.73;;;2.57;;
7334;SDS011;3708;42.632;23.378;2022-11-20T01:59:26;4.30;;;2.87;;
7334;SDS011;3708;42.632;23.378;2022-11-20T02:01:55;3.90;;;2.60;;
7334;SDS011;3708;42.632;23.378;2022-11-20T02:04:22;4.30;;;2.70;;
7334;SDS011;3708;42.632;23.378;2022-11-20T02:06:50;5.70;;;3.07;;
7334;SDS011;3708;42.632;23.378;2022-11-20T02:09:23;4.10;;;2.80;;
7334;SDS011;3708;42.632;23.378;2022-11-20T02:11:50;5.60;;;2.80;;
7334;SDS011;3708;42.632;23.378;2022-11-20T02:14:20;3.13;;;2.13;;
7334;SDS011;3708;42.632;23.378;2022-11-20T02:16:47;7.10;;;3.17;;
7334;SDS011;3708;42.632;23.378;2022-11-20T02:19:17;5.67;;;3.30;;
7334;SDS011;3708;42.632;23.378;2022-11-20T02:21:53;3.30;;;2.63;;
7334;SDS011;3708;42.632;23.378;2022-11-20T02:24:28;2.97;;;2.07;;
7334;SDS011;3708;42.632;23.378;2022-11-20T02:26:57;3.50;;;1.80;;
7334;SDS011;3708;42.632;23.378;2022-11-20T02:29:29;2.07;;;1.20;;
7334;SDS011;3708;42.632;23.378;2022-11-20T02:32:00;3.43;;;1.27;;
7334;SDS011;3708;42.632;23.378;2022-11-20T02:34:27;4.43;;;1.60;;
7334;SDS011;3708;42.632;23.378;2022-11-20T02:36:54;2.80;;;1.33;;
7334;SDS011;3708;42.632;23.378;2022-11-20T02:39:22;2.37;;;1.30;;
7334;SDS011;3708;42.632;23.378;2022-11-20T02:41:53;2.63;;;1.20;;
7334;SDS011;3708;42.632;23.378;2022-11-20T02:44:21;8.87;;;1.60;;
7334;SDS011;3708;42.632;23.378;2022-11-20T02:46:48;1.93;;;1.20;;
7334;SDS011;3708;42.632;23.378;2022-11-20T02:49:15;2.83;;;1.40;;
7334;SDS011;3708;42.632;23.378;2022-11-20T02:51:59;4.43;;;1.50;;
7334;SDS011;3708;42.632;23.378;2022-11-20T02:54:26;2.67;;;1.97;;
7334;SDS011;3708;42.632;23.378;2022-11-20T02:56:55;2.43;;;1.13;;
7334;SDS011;3708;42.632;23.378;2022-11-20T02:59:22;2.50;;;1.57;;
7334;SDS011;3708;42.632;23.378;2022-11-20T03:01:49;4.20;;;1.23;;
7334;SDS011;3708;42.632;23.378;2022-11-20T03:04:16;1.93;;;1.07;;
7334;SDS011;3708;42.632;23.378;2022-11-20T03:06:43;3.30;;;1.20;;
7334;SDS011;3708;42.632;23.378;2022-11-20T03:09:10;3.83;;;1.33;;
7334;SDS011;3708;42.632;23.378;2022-11-20T03:11:37;2.27;;;1.13;;
7334;SDS011;3708;42.632;23.378;2022-11-20T03:14:05;1.30;;;1.00;;
7334;SDS011;3708;42.632;23.378;2022-11-20T03:16:44;1.43;;;1.07;;
7334;SDS011;3708;42.632;23.378;2022-11-20T03:19:11;4.47;;;1.40;;
7334;SDS011;3708;42.632;23.378;2022-11-20T03:21:39;2.20;;;1.43;;
7334;SDS011;3708;42.632;23.378;2022-11-20T03:24:06;2.20;;;1.40;;
7334;SDS011;3708;42.632;23.378;2022-11-20T03:26:34;2.03;;;1.20;;
7334;SDS011;3708;42.632;23.378;2022-11-20T03:29:01;1.20;;;1.07;;
7334;SDS011;3708;42.632;23.378;2022-11-20T03:31:32;1.97;;;1.67;;
7334;SDS011;3708;42.632;23.378;2022-11-20T03:34:00;3.37;;;1.47;;
7334;SDS011;3708;42.632;23.378;2022-11-20T03:36:27;3.13;;;1.13;;
7334;SDS011;3708;42.632;23.378;2022-11-20T03:38:56;5.40;;;1.50;;
7334;SDS011;3708;42.632;23.378;2022-11-20T03:41:23;1.90;;;1.10;;
7334;SDS011;3708;42.632;23.378;2022-11-20T03:43:53;3.80;;;1.17;;
7334;SDS011;3708;42.632;23.378;2022-11-20T03:46:22;7.23;;;1.47;;
7334;SDS011;3708;42.632;23.378;2022-11-20T03:48:50;4.23;;;1.20;;
7334;SDS011;3708;42.632;23.378;2022-11-20T03:51:18;2.03;;;1.10;;
7334;SDS011;3708;42.632;23.378;2022-11-20T03:53:47;2.20;;;1.20;;
7334;SDS011;3708;42.632;23.378;2022-11-20T03:56:16;5.97;;;1.40;;
7334;SDS011;3708;42.632;23.378;2022-11-20T03:58:44;2.10;;;1.33;;
7334;SDS011;3708;42.632;23.378;2022-11-20T04:01:12;3.50;;;1.27;;
7334;SDS011;3708;42.632;23.378;2022-11-20T04:03:40;2.20;;;1.10;;
7334;SDS011;3708;42.632;23.378;2022-11-20T04:06:10;4.73;;;1.23;;
7334;SDS011;3708;42.632;23.378;2022-11-20T04:08:39;2.97;;;1.17;;
7334;SDS011;3708;42.632;23.378;2022-11-20T04:11:08;2.73;;;1.33;;
7334;SDS011;3708;42.632;23.378;2022-11-20T04:13:35;2.23;;;1.20;;
7334;SDS011;3708;42.632;23.378;2022-11-20T04:16:03;3.77;;;1.13;;
7334;SDS011;3708;42.632;23.378;2022-11-20T04:18:31;2.33;;;1.57;;
7334;SDS011;3708;42.632;23.378;2022-11-20T04:20:58;2.33;;;1.10;;
7334;SDS011;3708;42.632;23.378;2022-11-20T04:23:27;2.33;;;1.30;;
7334;SDS011;3708;42.632;23.378;2022-11-20T04:26:00;4.07;;;1.10;;
7334;SDS011;3708;42.632;23.378;2022-11-20T04:28:27;4.13;;;1.30;;
7334;SDS011;3708;42.632;23.378;2022-11-20T04:30:54;1.17;;;1.00;;
7334;SDS011;3708;42.632;23.378;2022-11-20T04:33:27;2.97;;;1.30;;
7334;SDS011;3708;42.632;23.378;2022-11-20T04:35:54;2.90;;;1.10;;
7334;SDS011;3708;42.632;23.378;2022-11-20T04:38:21;4.73;;;1.30;;
7334;SDS011;3708;42.632;23.378;2022-11-20T04:40:49;4.30;;;2.00;;
7334;SDS011;3708;42.632;23.378;2022-11-20T04:43:16;5.60;;;1.10;;
7334;SDS011;3708;42.632;23.378;2022-11-20T04:45:43;1.70;;;1.00;;
7334;SDS011;3708;42.632;23.378;2022-11-20T04:48:16;2.37;;;1.20;;
7334;SDS011;3708;42.632;23.378;2022-11-20T04:50:43;3.10;;;1.30;;
7334;SDS011;3708;42.632;23.378;2022-11-20T04:53:10;5.07;;;1.33;;
7334;SDS011;3708;42.632;23.378;2022-11-20T04:55:37;1.90;;;1.17;;
7334;SDS011;3708;42.632;23.378;2022-11-20T04:58:06;3.50;;;1.43;;
7334;SDS011;3708;42.632;23.378;2022-11-20T05:00:33;5.00;;;1.50;;
7334;SDS011;3708;42.632;23.378;2022-11-20T05:02:59;2.47;;;1.20;;
7334;SDS011;3708;42.632;23.378;2022-11-20T05:05:26;1.97;;;1.20;;
7334;SDS011;3708;42.632;23.378;2022-11-20T05:07:55;3.87;;;1.20;;
7334;SDS011;3708;42.632;23.378;2022-11-20T05:10:22;2.93;;;0.97;;
7334;SDS011;3708;42.632;23.378;2022-11-20T05:12:49;1.63;;;1.33;;
7334;SDS011;3708;42.632;23.378;2022-11-20T05:15:18;2.53;;;1.20;;
7334;SDS011;3708;42.632;23.378;2022-11-20T05:17:46;4.73;;;1.40;;
7334;SDS011;3708;42.632;23.378;2022-11-20T05:20:14;3.73;;;1.23;;
7334;SDS011;3708;42.632;23.378;2022-11-20T05:22:41;3.87;;;1.70;;
7334;SDS011;3708;42.632;23.378;2022-11-20T05:25:08;4.00;;;2.13;;
7334;SDS011;3708;42.632;23.378;2022-11-20T05:27:35;3.97;;;1.80;;
7334;SDS011;3708;42.632;23.378;2022-11-20T05:30:02;2.90;;;1.30;;
7334;SDS011;3708;42.632;23.378;2022-11-20T05:32:31;1.93;;;1.30;;
7334;SDS011;3708;42.632;23.378;2022-11-20T05:34:58;3.23;;;1.83;;
7334;SDS011;3708;42.632;23.378;2022-11-20T05:37:24;3.37;;;1.30;;
7334;SDS011;3708;42.632;23.378;2022-11-20T05:39:51;5.73;;;1.80;;
7334;SDS011;3708;42.632;23.378;2022-11-20T05:42:18;5.80;;;1.83;;
7334;SDS011;3708;42.632;23.378;2022-11-20T05:44:57;2.90;;;1.60;;
7334;SDS011;3708;42.632;23.378;2022-11-20T05:47:24;3.57;;;1.47;;
7334;SDS011;3708;42.632;23.378;2022-11-20T05:49:53;1.97;;;1.40;;
7334;SDS011;3708;42.632;23.378;2022-11-20T05:52:22;2.00;;;1.30;;
7334;SDS011;3708;42.632;23.378;2022-11-20T05:54:49;1.70;;;1.60;;
7334;SDS011;3708;42.632;23.378;2022-11-20T05:57:16;3.97;;;1.97;;
7334;SDS011;3708;42.632;23.378;2022-11-20T05:59:43;2.57;;;1.50;;
7334;SDS011;3708;42.632;23.378;2022-11-20T06:02:10;4.93;;;1.70;;
7334;SDS011;3708;42.632;23.378;2022-11-20T06:04:37;4.77;;;1.57;;
7334;SDS011;3708;42.632;23.378;2022-11-20T06:07:05;4.00;;;1.67;;
7334;SDS011;3708;42.632;23.378;2022-11-20T06:09:32;5.73;;;2.00;;
7334;SDS011;3708;42.632;23.378;2022-11-20T06:11:59;4.17;;;1.83;;
7334;SDS011;3708;42.632;23.378;2022-11-20T06:14:26;6.93;;;2.00;;
7334;SDS011;3708;42.632;23.378;2022-11-20T06:16:53;4.27;;;2.20;;
7334;SDS011;3708;42.632;23.378;2022-11-20T06:19:20;8.33;;;1.73;;
7334;SDS011;3708;42.632;23.378;2022-11-20T06:21:47;2.83;;;1.60;;
7334;SDS011;3708;42.632;23.378;2022-11-20T06:24:16;3.90;;;1.83;;
7334;SDS011;3708;42.632;23.378;2022-11-20T06:26:44;12.57;;;2.20;;
7334;SDS011;3708;42.632;23.378;2022-11-20T06:29:11;2.90;;;1.87;;
7334;SDS011;3708;42.632;23.378;2022-11-20T06:31:38;5.20;;;1.83;;
7334;SDS011;3708;42.632;23.378;2022-11-20T06:34:07;6.03;;;1.60;;
7334;SDS011;3708;42.632;23.378;2022-11-20T06:36:34;5.97;;;2.10;;
7334;SDS011;3708;42.632;23.378;2022-11-20T06:39:01;5.47;;;2.17;;
7334;SDS011;3708;42.632;23.378;2022-11-20T06:41:32;2.57;;;1.77;;
7334;SDS011;3708;42.632;23.378;2022-11-20T06:44:03;4.27;;;1.83;;
7334;SDS011;3708;42.632;23.378;2022-11-20T06:46:31;7.03;;;1.83;;
7334;SDS011;3708;42.632;23.378;2022-11-20T06:48:58;2.97;;;1.30;;
7334;SDS011;3708;42.632;23.378;2022-11-20T06:51:25;1.83;;;1.30;;
7334;SDS011;3708;42.632;23.378;2022-11-20T06:53:52;4.63;;;1.77;;
7334;SDS011;3708;42.632;23.378;2022-11-20T06:56:19;4.77;;;1.63;;
7334;SDS011;3708;42.632;23.378;2022-11-20T06:58:49;5.07;;;1.90;;
7334;SDS011;3708;42.632;23.378;2022-11-20T07:01:17;5.57;;;1.50;;
7334;SDS011;3708;42.632;23.378;2022-11-20T07:03:44;3.37;;;1.33;;
7334;SDS011;3708;42.632;23.378;2022-11-20T07:06:11;4.63;;;1.60;;
7334;SDS011;3708;42.632;23.378;2022-11-20T07:08:38;3.23;;;1.20;;
7334;SDS011;3708;42.632;23.378;2022-11-20T07:11:05;4.80;;;1.60;;
7334;SDS011;3708;42.632;23.378;2022-11-20T07:13:33;2.37;;;1.70;;
7334;SDS011;3708;42.632;23.378;2022-11-20T07:16:09;5.47;;;1.60;;
7334;SDS011;3708;42.632;23.378;2022-11-20T07:18:37;4.13;;;1.77;;
7334;SDS011;3708;42.632;23.378;2022-11-20T07:21:09;3.23;;;1.40;;
7334;SDS011;3708;42.632;23.378;2022-11-20T07:23:39;3.20;;;1.70;;
7334;SDS011;3708;42.632;23.378;2022-11-20T07:26:08;3.90;;;1.60;;
7334;SDS011;3708;42.632;23.378;2022-11-20T07:28:39;3.87;;;1.67;;
7334;SDS011;3708;42.632;23.378;2022-11-20T07:31:15;3.47;;;2.20;;
7334;SDS011;3708;42.632;23.378;2022-11-20T07:33:48;1.97;;;1.40;;
7334;SDS011;3708;42.632;23.378;2022-11-20T07:36:21;5.13;;;1.60;;
7334;SDS011;3708;42.632;23.378;2022-11-20T07:38:50;4.50;;;2.20;;
7334;SDS011;3708;42.632;23.378;2022-11-20T07:41:22;3.17;;;1.80;;
7334;SDS011;3708;42.632;23.378;2022-11-20T07:44:03;4.43;;;1.53;;
7334;SDS011;3708;42.632;23.378;2022-11-20T07:46:38;6.87;;;2.20;;
7334;SDS011;3708;42.632;23.378;2022-11-20T07:49:17;11.00;;;1.60;;
7334;SDS011;3708;42.632;23.378;2022-11-20T07:51:51;3.27;;;1.93;;
7334;SDS011;3708;42.632;23.378;2022-11-20T07:54:21;4.93;;;1.57;;
7334;SDS011;3708;42.632;23.378;2022-11-20T07:56:49;5.23;;;1.80;;
7334;SDS011;3708;42.632;23.378;2022-11-20T07:59:24;4.63;;;1.70;;
7334;SDS011;3708;42.632;23.378;2022-11-20T08:01:54;3.00;;;1.50;;
7334;SDS011;3708;42.632;23.378;2022-11-20T08:04:31;2.90;;;1.50;;
7334;SDS011;3708;42.632;23.378;2022-11-20T08:06:58;3.87;;;1.50;;
7334;SDS011;3708;42.632;23.378;2022-11-20T08:09:42;4.10;;;1.53;;
7334;SDS011;3708;42.632;23.378;2022-11-20T08:12:10;4.73;;;1.73;;
7334;SDS011;3708;42.632;23.378;2022-11-20T08:15:01;6.63;;;2.00;;
7334;SDS011;3708;42.632;23.378;2022-11-20T08:17:30;5.57;;;1.63;;
7334;SDS011;3708;42.632;23.378;2022-11-20T08:19:58;5.13;;;1.73;;
7334;SDS011;3708;42.632;23.378;2022-11-20T08:22:25;6.23;;;2.10;;
7334;SDS011;3708;42.632;23.378;2022-11-20T08:24:52;5.87;;;2.13;;
7334;SDS011;3708;42.632;23.378;2022-11-20T08:27:21;6.50;;;1.73;;
7334;SDS011;3708;42.632;23.378;2022-11-20T08:29:48;8.17;;;2.30;;
7334;SDS011;3708;42.632;23.378;2022-11-20T08:32:14;3.87;;;1.73;;
7334;SDS011;3708;42.632;23.378;2022-11-20T08:34:47;9.33;;;2.50;;
7334;SDS011;3708;42.632;23.378;2022-11-20T08:37:17;7.33;;;2.43;;
7334;SDS011;3708;42.632;23.378;2022-11-20T08:39:46;4.10;;;2.10;;
7334;SDS011;3708;42.632;23.378;2022-11-20T08:42:14;10.37;;;2.47;;
7334;SDS011;3708;42.632;23.378;2022-11-20T08:44:41;3.60;;;1.43;;
7334;SDS011;3708;42.632;23.378;2022-11-20T08:47:13;5.93;;;2.37;;
7334;SDS011;3708;42.632;23.378;2022-11-20T08:49:52;2.87;;;1.47;;
7334;SDS011;3708;42.632;23.378;2022-11-20T08:52:25;6.60;;;1.77;;
7334;SDS011;3708;42.632;23.378;2022-11-20T08:54:53;7.93;;;2.00;;
7334;SDS011;3708;42.632;23.378;2022-11-20T08:57:20;8.67;;;1.60;;
7334;SDS011;3708;42.632;23.378;2022-11-20T08:59:48;5.97;;;1.80;;
7334;SDS011;3708;42.632;23.378;2022-11-20T09:02:15;3.53;;;1.50;;
7334;SDS011;3708;42.632;23.378;2022-11-20T09:04:42;9.27;;;2.17;;
7334;SDS011;3708;42.632;23.378;2022-11-20T09:07:16;7.20;;;2.10;;
7334;SDS011;3708;42.632;23.378;2022-11-20T09:09:49;7.03;;;2.10;;
7334;SDS011;3708;42.632;23.378;2022-11-20T09:12:48;5.47;;;2.00;;
7334;SDS011;3708;42.632;23.378;2022-11-20T09:15:19;5.23;;;1.93;;
7334;SDS011;3708;42.632;23.378;2022-11-20T09:18:00;3.10;;;2.03;;
7334;SDS011;3708;42.632;23.378;2022-11-20T09:20:30;3.33;;;1.63;;
7334;SDS011;3708;42.632;23.378;2022-11-20T09:23:03;6.50;;;1.97;;
7334;SDS011;3708;42.632;23.378;2022-11-20T09:25:38;5.57;;;1.87;;
7334;SDS011;3708;42.632;23.378;2022-11-20T09:28:07;3.37;;;2.00;;
7334;SDS011;3708;42.632;23.378;2022-11-20T09:30:35;5.33;;;2.27;;
7334;SDS011;3708;42.632;23.378;2022-11-20T09:33:04;6.07;;;2.23;;
7334;SDS011;3708;42.632;23.378;2022-11-20T09:35:39;4.40;;;2.13;;
7334;SDS011;3708;42.632;23.378;2022-11-20T09:38:25;5.70;;;2.20;;
7334;SDS011;3708;42.632;23.378;2022-11-20T09:40:57;7.77;;;2.40;;
7334;SDS011;3708;42.632;23.378;2022-11-20T09:43:31;3.03;;;1.97;;
7334;SDS011;3708;42.632;23.378;2022-11-20T09:46:07;4.67;;;2.30;;
7334;SDS011;3708;42.632;23.378;2022-11-20T09:48:46;6.93;;;3.17;;
7334;SDS011;3708;42.632;23.378;2022-11-20T09:51:28;8.17;;;3.70;;
7334;SDS011;3708;42.632;23.378;2022-11-20T09:54:22;3.17;;;2.63;;
7334;SDS011;3708;42.632;23.378;2022-11-20T09:57:00;4.17;;;2.70;;
7334;SDS011;3708;42.632;23.378;2022-11-20T10:02:42;4.77;;;2.87;;
7334;SDS011;3708;42.632;23.378;2022-11-20T10:05:19;3.07;;;2.10;;
7334;SDS011;3708;42.632;23.378;2022-11-20T10:08:07;4.77;;;2.23;;
7334;SDS011;3708;42.632;23.378;2022-11-20T10:10:50;6.10;;;2.40;;
7334;SDS011;3708;42.632;23.378;2022-11-20T10:13:39;3.80;;;2.20;;
7334;SDS011;3708;42.632;23.378;2022-11-20T10:16:21;4.07;;;1.87;;
7334;SDS011;3708;42.632;23.378;2022-11-20T10:19:18;7.07;;;2.60;;
7334;SDS011;3708;42.632;23.378;2022-11-20T10:22:09;9.90;;;2.70;;
7334;SDS011;3708;42.632;23.378;2022-11-20T10:24:55;5.73;;;2.87;;
7334;SDS011;3708;42.632;23.378;2022-11-20T10:28:04;3.90;;;2.93;;
7334;SDS011;3708;42.632;23.378;2022-11-20T10:30:55;9.87;;;3.70;;
7334;SDS011;3708;42.632;23.378;2022-11-20T10:33:29;9.43;;;4.00;;
7334;SDS011;3708;42.632;23.378;2022-11-20T10:36:01;7.20;;;2.77;;
7334;SDS011;3708;42.632;23.378;2022-11-20T10:38:37;7.67;;;3.23;;
7334;SDS011;3708;42.632;23.378;2022-11-20T10:41:10;6.87;;;3.27;;
7334;SDS011;3708;42.632;23.378;2022-11-20T10:43:56;5.83;;;2.97;;
7334;SDS011;3708;42.632;23.378;2022-11-20T10:46:33;8.03;;;2.97;;
7334;SDS011;3708;42.632;23.378;2022-11-20T10:49:13;7.07;;;2.70;;
7334;SDS011;3708;42.632;23.378;2022-11-20T10:51:45;7.20;;;2.77;;
7334;SDS011;3708;42.632;23.378;2022-11-20T10:54:25;5.80;;;3.10;;
7334;SDS011;3708;42.632;23.378;2022-11-20T10:57:00;6.20;;;2.80;;
7334;SDS011;3708;42.632;23.378;2022-11-20T10:59:41;7.70;;;3.43;;
7334;SDS011;3708;42.632;23.378;2022-11-20T11:02:22;9.53;;;2.93;;
7334;SDS011;3708;42.632;23.378;2022-11-20T11:04:50;6.27;;;3.60;;
7334;SDS011;3708;42.632;23.378;2022-11-20T11:07:20;8.53;;;3.20;;
7334;SDS011;3708;42.632;23.378;2022-11-20T11:09:50;7.93;;;3.63;;
7334;SDS011;3708;42.632;23.378;2022-11-20T11:12:19;11.10;;;3.83;;
7334;SDS011;3708;42.632;23.378;2022-11-20T11:15:12;7.60;;;3.37;;
7334;SDS011;3708;42.632;23.378;2022-11-20T11:17:46;9.53;;;2.90;;
7334;SDS011;3708;42.632;23.378;2022-11-20T11:20:15;7.87;;;3.10;;
7334;SDS011;3708;42.632;23.378;2022-11-20T11:22:45;11.03;;;3.97;;
7334;SDS011;3708;42.632;23.378;2022-11-20T11:25:21;9.00;;;3.40;;
7334;SDS011;3708;42.632;23.378;2022-11-20T11:27:51;6.53;;;3.30;;
7334;SDS011;3708;42.632;23.378;2022-11-20T11:30:22;7.43;;;3.00;;
7334;SDS011;3708;42.632;23.378;2022-11-20T11:32:50;11.40;;;3.03;;
7334;SDS011;3708;42.632;23.378;2022-11-20T11:35:28;5.13;;;2.27;;
7334;SDS011;3708;42.632;23.378;2022-11-20T11:38:01;4.47;;;2.13;;
7334;SDS011;3708;42.632;23.378;2022-11-20T11:40:31;3.27;;;1.50;;
7334;SDS011;3708;42.632;23.378;2022-11-20T11:43:01;2.07;;;1.40;;
7334;SDS011;3708;42.632;23.378;2022-11-20T11:45:53;9.30;;;2.00;;
7334;SDS011;3708;42.632;23.378;2022-11-20T11:48:21;3.47;;;1.30;;
7334;SDS011;3708;42.632;23.378;2022-11-20T11:50:49;1.60;;;1.00;;
7334;SDS011;3708;42.632;23.378;2022-11-20T11:53:17;2.47;;;1.27;;
7334;SDS011;3708;42.632;23.378;2022-11-20T11:55:49;2.87;;;1.30;;
7334;SDS011;3708;42.632;23.378;2022-11-20T11:58:30;3.27;;;1.33;;
7334;SDS011;3708;42.632;23.378;2022-11-20T12:01:11;2.10;;;1.33;;
7334;SDS011;3708;42.632;23.378;2022-11-20T12:03:52;1.63;;;1.10;;
7334;SDS011;3708;42.632;23.378;2022-11-20T12:06:26;1.57;;;0.90;;
7334;SDS011;3708;42.632;23.378;2022-11-20T12:08:57;4.30;;;1.27;;
7334;SDS011;3708;42.632;23.378;2022-11-20T12:11:30;5.73;;;1.47;;
7334;SDS011;3708;42.632;23.378;2022-11-20T12:14:07;2.40;;;1.10;;
7334;SDS011;3708;42.632;23.378;2022-11-20T12:16:41;2.00;;;1.00;;
7334;SDS011;3708;42.632;23.378;2022-11-20T12:19:10;3.57;;;1.20;;
7334;SDS011;3708;42.632;23.378;2022-11-20T12:21:41;0.70;;;0.70;;
7334;SDS011;3708;42.632;23.378;2022-11-20T12:24:33;2.37;;;1.20;;
7334;SDS011;3708;42.632;23.378;2022-11-20T12:27:15;3.57;;;1.13;;
7334;SDS011;3708;42.632;23.378;2022-11-20T12:30:07;1.47;;;0.80;;
7334;SDS011;3708;42.632;23.378;2022-11-20T12:32:41;1.50;;;0.90;;
7334;SDS011;3708;42.632;23.378;2022-11-20T12:35:30;2.00;;;0.80;;
7334;SDS011;3708;42.632;23.378;2022-11-20T12:38:11;0.80;;;0.77;;
7334;SDS011;3708;42.632;23.378;2022-11-20T12:40:57;1.17;;;0.90;;
7334;SDS011;3708;42.632;23.378;2022-11-20T12:43:33;3.33;;;1.40;;
7334;SDS011;3708;42.632;23.378;2022-11-20T12:46:25;2.23;;;1.60;;
7334;SDS011;3708;42.632;23.378;2022-11-20T12:49:17;2.07;;;1.20;;
7334;SDS011;3708;42.632;23.378;2022-11-20T12:52:00;3.93;;;1.20;;
7334;SDS011;3708;42.632;23.378;2022-11-20T12:57:37;4.53;;;1.60;;
7334;SDS011;3708;42.632;23.378;2022-11-20T13:00:15;16.93;;;1.40;;
7334;SDS011;3708;42.632;23.378;2022-11-20T13:05:39;4.00;;;2.10;;
7334;SDS011;3708;42.632;23.378;2022-11-20T13:08:14;4.30;;;2.97;;
7334;SDS011;3708;42.632;23.378;2022-11-20T13:10:49;5.10;;;2.30;;
7334;SDS011;3708;42.632;23.378;2022-11-20T13:13:24;3.83;;;2.13;;
7334;SDS011;3708;42.632;23.378;2022-11-20T13:16:03;2.37;;;2.00;;
7334;SDS011;3708;42.632;23.378;2022-11-20T13:18:42;4.03;;;2.10;;
7334;SDS011;3708;42.632;23.378;2022-11-20T13:21:21;8.13;;;2.80;;
7334;SDS011;3708;42.632;23.378;2022-11-20T13:24:23;5.20;;;2.30;;
7334;SDS011;3708;42.632;23.378;2022-11-20T13:27:16;5.17;;;2.30;;
7334;SDS011;3708;42.632;23.378;2022-11-20T13:29:59;2.70;;;1.60;;
7334;SDS011;3708;42.632;23.378;2022-11-20T13:32:36;3.97;;;2.07;;
7334;SDS011;3708;42.632;23.378;2022-11-20T13:35:28;4.43;;;2.00;;
7334;SDS011;3708;42.632;23.378;2022-11-20T13:38:16;5.07;;;1.83;;
7334;SDS011;3708;42.632;23.378;2022-11-20T13:40:53;4.50;;;1.97;;
7334;SDS011;3708;42.632;23.378;2022-11-20T13:43:47;6.33;;;2.80;;
7334;SDS011;3708;42.632;23.378;2022-11-20T13:46:34;6.50;;;2.70;;
7334;SDS011;3708;42.632;23.378;2022-11-20T13:49:16;5.33;;;2.40;;
7334;SDS011;3708;42.632;23.378;2022-11-20T13:51:46;6.93;;;2.33;;
7334;SDS011;3708;42.632;23.378;2022-11-20T13:54:26;5.03;;;2.60;;
7334;SDS011;3708;42.632;23.378;2022-11-20T14:00:23;3.70;;;2.20;;
7334;SDS011;3708;42.632;23.378;2022-11-20T14:03:02;8.53;;;2.50;;
7334;SDS011;3708;42.632;23.378;2022-11-20T14:05:46;5.70;;;2.73;;
7334;SDS011;3708;42.632;23.378;2022-11-20T14:08:35;2.57;;;1.97;;
7334;SDS011;3708;42.632;23.378;2022-11-20T14:11:21;5.87;;;2.70;;
7334;SDS011;3708;42.632;23.378;2022-11-20T14:13:57;5.20;;;2.87;;
7334;SDS011;3708;42.632;23.378;2022-11-20T14:16:32;8.87;;;3.20;;
7334;SDS011;3708;42.632;23.378;2022-11-20T14:22:16;5.80;;;2.13;;
7334;SDS011;3708;42.632;23.378;2022-11-20T14:25:18;4.10;;;2.23;;
7334;SDS011;3708;42.632;23.378;2022-11-20T14:30:50;9.57;;;3.00;;
7334;SDS011;3708;42.632;23.378;2022-11-20T14:33:31;4.67;;;2.63;;
7334;SDS011;3708;42.632;23.378;2022-11-20T14:36:17;8.13;;;3.40;;
7334;SDS011;3708;42.632;23.378;2022-11-20T14:46:41;7.97;;;3.27;;
7334;SDS011;3708;42.632;23.378;2022-11-20T14:49:10;5.57;;;3.07;;
7334;SDS011;3708;42.632;23.378;2022-11-20T14:51:59;12.20;;;3.90;;
7334;SDS011;3708;42.632;23.378;2022-11-20T14:54:54;14.10;;;4.70;;
7334;SDS011;3708;42.632;23.378;2022-11-20T14:57:34;10.80;;;4.10;;
7334;SDS011;3708;42.632;23.378;2022-11-20T15:00:18;8.10;;;3.97;;
7334;SDS011;3708;42.632;23.378;2022-11-20T15:02:49;7.07;;;3.90;;
7334;SDS011;3708;42.632;23.378;2022-11-20T15:05:18;5.63;;;3.40;;
7334;SDS011;3708;42.632;23.378;2022-11-20T15:07:47;9.67;;;4.20;;
7334;SDS011;3708;42.632;23.378;2022-11-20T15:10:20;8.53;;;4.47;;
7334;SDS011;3708;42.632;23.378;2022-11-20T15:12:49;13.30;;;4.80;;
7334;SDS011;3708;42.632;23.378;2022-11-20T15:15:19;7.47;;;4.37;;
7334;SDS011;3708;42.632;23.378;2022-11-20T15:17:51;8.40;;;4.83;;
7334;SDS011;3708;42.632;23.378;2022-11-20T15:20:21;6.37;;;3.80;;
7334;SDS011;3708;42.632;23.378;2022-11-20T15:22:54;10.03;;;4.33;;
7334;SDS011;3708;42.632;23.378;2022-11-20T15:25:21;7.37;;;4.00;;
7334;SDS011;3708;42.632;23.378;2022-11-20T15:27:50;3.93;;;2.70;;
7334;SDS011;3708;42.632;23.378;2022-11-20T15:30:21;10.27;;;4.40;;
7334;SDS011;3708;42.632;23.378;2022-11-20T15:32:48;6.17;;;2.70;;
7334;SDS011;3708;42.632;23.378;2022-11-20T15:35:16;3.37;;;2.33;;
7334;SDS011;3708;42.632;23.378;2022-11-20T15:37:43;5.07;;;2.60;;
7334;SDS011;3708;42.632;23.378;2022-11-20T15:40:11;3.43;;;2.33;;
7334;SDS011;3708;42.632;23.378;2022-11-20T15:42:38;3.50;;;2.20;;
7334;SDS011;3708;42.632;23.378;2022-11-20T15:45:25;2.70;;;2.07;;
7334;SDS011;3708;42.632;23.378;2022-11-20T15:47:56;6.83;;;2.90;;
7334;SDS011;3708;42.632;23.378;2022-11-20T15:50:26;8.10;;;3.33;;
7334;SDS011;3708;42.632;23.378;2022-11-20T15:53:02;3.07;;;2.00;;
7334;SDS011;3708;42.632;23.378;2022-11-20T15:55:31;4.10;;;2.23;;
7334;SDS011;3708;42.632;23.378;2022-11-20T15:58:03;4.23;;;2.20;;